sensor_id;sensor_type;location;lat;lon;timestamp;temperature;humidity
36280;DHT22;22317;47.936;12.742;2022-11-28T00:01:00;1.20;61.90
36280;DHT22;22317;47.936;12.742;2022-11-28T00:03:26;1.20;62.00
36280;DHT22;22317;47.936;12.742;2022-11-28T00:05:52;1.20;62.00
36280;DHT22;22317;47.936;12.742;2022-11-28T00:08:18;1.20;61.90
36280;DHT22;22317;47.936;12.742;2022-11-28T00:10:44;1.20;61.90
36280;DHT22;22317;47.936;12.742;2022-11-28T00:13:10;1.10;61.90
36280;DHT22;22317;47.936;12.742;2022-11-28T00:15:35;1.10;61.90
36280;DHT22;22317;47.936;12.742;2022-11-28T00:18:01;1.10;61.90
36280;DHT22;22317;47.936;12.742;2022-11-28T00:20:30;1.10;62.00
36280;DHT22;22317;47.936;12.742;2022-11-28T00:22:55;1.10;62.00
36280;DHT22;22317;47.936;12.742;2022-11-28T00:25:21;1.10;62.00
36280;DHT22;22317;47.936;12.742;2022-11-28T00:27:47;1.10;62.00
36280;DHT22;22317;47.936;12.742;2022-11-28T00:30:13;1.30;62.00
36280;DHT22;22317;47.936;12.742;2022-11-28T00:32:39;1.00;61.90
36280;DHT22;22317;47.936;12.742;2022-11-28T00:35:05;1.00;62.00
36280;DHT22;22317;47.936;12.742;2022-11-28T00:37:30;1.00;62.10
36280;DHT22;22317;47.936;12.742;2022-11-28T00:39:56;1.00;62.10
36280;DHT22;22317;47.936;12.742;2022-11-28T00:42:22;1.00;62.00
36280;DHT22;22317;47.936;12.742;2022-11-28T00:44:48;1.00;62.00
36280;DHT22;22317;47.936;12.742;2022-11-28T00:47:14;1.00;62.00
36280;DHT22;22317;47.936;12.742;2022-11-28T00:49:40;1.00;62.00
36280;DHT22;22317;47.936;12.742;2022-11-28T00:52:06;1.10;62.00
36280;DHT22;22317;47.936;12.742;2022-11-28T00:54:32;1.10;62.00
36280;DHT22;22317;47.936;12.742;2022-11-28T00:56:58;1.00;61.90
36280;DHT22;22317;47.936;12.742;2022-11-28T00:59:23;1.00;61.90
36280;DHT22;22317;47.936;12.742;2022-11-28T01:01:49;1.00;62.00
36280;DHT22;22317;47.936;12.742;2022-11-28T01:04:16;0.90;61.90
36280;DHT22;22317;47.936;12.742;2022-11-28T01:06:44;1.00;62.00
36280;DHT22;22317;47.936;12.742;2022-11-28T01:09:16;1.00;62.10
36280;DHT22;22317;47.936;12.742;2022-11-28T01:11:43;0.90;61.90
36280;DHT22;22317;47.936;12.742;2022-11-28T01:14:10;1.00;62.00
36280;DHT22;22317;47.936;12.742;2022-11-28T01:16:37;0.90;61.90
36280;DHT22;22317;47.936;12.742;2022-11-28T01:19:04;0.90;61.90
36280;DHT22;22317;47.936;12.742;2022-11-28T01:21:30;1.00;62.10
36280;DHT22;22317;47.936;12.742;2022-11-28T01:23:56;0.90;62.00
36280;DHT22;22317;47.936;12.742;2022-11-28T01:26:24;0.90;62.00
36280;DHT22;22317;47.936;12.742;2022-11-28T01:28:51;0.90;62.10
36280;DHT22;22317;47.936;12.742;2022-11-28T01:31:19;0.90;62.00
36280;DHT22;22317;47.936;12.742;2022-11-28T01:33:45;1.00;62.10
36280;DHT22;22317;47.936;12.742;2022-11-28T01:36:13;0.90;62.10
36280;DHT22;22317;47.936;12.742;2022-11-28T01:38:39;0.90;62.20
36280;DHT22;22317;47.936;12.742;2022-11-28T01:41:06;0.90;62.20
36280;DHT22;22317;47.936;12.742;2022-11-28T01:43:32;0.90;62.20
36280;DHT22;22317;47.936;12.742;2022-11-28T01:45:58;0.90;62.20
36280;DHT22;22317;47.936;12.742;2022-11-28T01:48:30;0.90;62.30
36280;DHT22;22317;47.936;12.742;2022-11-28T01:51:05;0.90;62.30
36280;DHT22;22317;47.936;12.742;2022-11-28T01:53:36;0.90;62.30
36280;DHT22;22317;47.936;12.742;2022-11-28T01:56:09;1.00;62.20
36280;DHT22;22317;47.936;12.742;2022-11-28T01:58:39;1.00;62.20
36280;DHT22;22317;47.936;12.742;2022-11-28T02:01:06;1.00;62.20
36280;DHT22;22317;47.936;12.742;2022-11-28T02:03:44;1.00;62.20
36280;DHT22;22317;47.936;12.742;2022-11-28T02:06:12;0.90;62.10
36280;DHT22;22317;47.936;12.742;2022-11-28T02:08:38;1.00;62.10
36280;DHT22;22317;47.936;12.742;2022-11-28T02:24:55;0.90;62.10
36280;DHT22;22317;47.936;12.742;2022-11-28T02:27:49;0.80;62.10
36280;DHT22;22317;47.936;12.742;2022-11-28T02:35:37;0.80;61.90
36280;DHT22;22317;47.936;12.742;2022-11-28T02:38:33;0.80;61.90
36280;DHT22;22317;47.936;12.742;2022-11-28T02:43:55;0.70;61.80
36280;DHT22;22317;47.936;12.742;2022-11-28T02:49:21;0.60;61.90
36280;DHT22;22317;47.936;12.742;2022-11-28T02:51:55;0.60;62.00
36280;DHT22;22317;47.936;12.742;2022-11-28T02:54:23;0.50;62.20
36280;DHT22;22317;47.936;12.742;2022-11-28T02:56:51;0.60;62.40
36280;DHT22;22317;47.936;12.742;2022-11-28T02:59:45;0.60;62.50
36280;DHT22;22317;47.936;12.742;2022-11-28T03:02:24;0.70;62.60
36280;DHT22;22317;47.936;12.742;2022-11-28T03:05:20;0.60;62.40
36280;DHT22;22317;47.936;12.742;2022-11-28T03:13:38;0.60;62.20
36280;DHT22;22317;47.936;12.742;2022-11-28T03:19:33;0.50;62.10
36280;DHT22;22317;47.936;12.742;2022-11-28T03:24:47;0.50;62.10
36280;DHT22;22317;47.936;12.742;2022-11-28T03:29:44;0.40;62.10
36280;DHT22;22317;47.936;12.742;2022-11-28T03:32:17;0.40;62.30
36280;DHT22;22317;47.936;12.742;2022-11-28T03:34:46;0.40;62.40
36280;DHT22;22317;47.936;12.742;2022-11-28T03:37:20;0.40;62.50
36280;DHT22;22317;47.936;12.742;2022-11-28T03:39:53;0.40;62.60
36280;DHT22;22317;47.936;12.742;2022-11-28T03:42:22;0.40;62.60
36280;DHT22;22317;47.936;12.742;2022-11-28T03:47:43;0.50;62.70
36280;DHT22;22317;47.936;12.742;2022-11-28T03:50:21;0.50;63.40
36280;DHT22;22317;47.936;12.742;2022-11-28T03:53:13;0.50;62.60
36280;DHT22;22317;47.936;12.742;2022-11-28T03:55:42;0.50;62.60
36280;DHT22;22317;47.936;12.742;2022-11-28T03:58:26;0.50;62.40
36280;DHT22;22317;47.936;12.742;2022-11-28T04:01:29;0.50;62.40
36280;DHT22;22317;47.936;12.742;2022-11-28T04:04:10;0.50;62.60
36280;DHT22;22317;47.936;12.742;2022-11-28T04:09:15;0.50;62.70
36280;DHT22;22317;47.936;12.742;2022-11-28T04:11:58;0.60;62.80
36280;DHT22;22317;47.936;12.742;2022-11-28T04:14:45;0.50;62.60
36280;DHT22;22317;47.936;12.742;2022-11-28T04:17:22;0.50;62.50
36280;DHT22;22317;47.936;12.742;2022-11-28T04:20:00;0.50;62.40
36280;DHT22;22317;47.936;12.742;2022-11-28T04:22:38;0.60;62.60
36280;DHT22;22317;47.936;12.742;2022-11-28T04:25:08;0.50;63.30
36280;DHT22;22317;47.936;12.742;2022-11-28T04:27:38;0.50;62.50
36280;DHT22;22317;47.936;12.742;2022-11-28T04:30:06;0.50;62.60
36280;DHT22;22317;47.936;12.742;2022-11-28T04:32:35;0.40;62.60
36280;DHT22;22317;47.936;12.742;2022-11-28T04:35:08;0.40;62.60
36280;DHT22;22317;47.936;12.742;2022-11-28T04:37:38;0.30;62.70
36280;DHT22;22317;47.936;12.742;2022-11-28T04:40:07;0.30;62.80
36280;DHT22;22317;47.936;12.742;2022-11-28T04:42:42;0.40;63.10
36280;DHT22;22317;47.936;12.742;2022-11-28T04:45:16;0.60;63.20
36280;DHT22;22317;47.936;12.742;2022-11-28T04:47:44;0.40;62.90
36280;DHT22;22317;47.936;12.742;2022-11-28T04:50:10;0.40;62.80
36280;DHT22;22317;47.936;12.742;2022-11-28T04:52:55;0.30;62.90
36280;DHT22;22317;47.936;12.742;2022-11-28T04:55:41;0.40;63.20
36280;DHT22;22317;47.936;12.742;2022-11-28T04:58:20;0.40;63.30
36280;DHT22;22317;47.936;12.742;2022-11-28T05:00:49;0.40;63.30
36280;DHT22;22317;47.936;12.742;2022-11-28T05:03:15;0.50;63.10
36280;DHT22;22317;47.936;12.742;2022-11-28T05:05:50;0.50;63.00
36280;DHT22;22317;47.936;12.742;2022-11-28T05:08:17;0.50;63.00
36280;DHT22;22317;47.936;12.742;2022-11-28T05:10:43;0.50;63.00
36280;DHT22;22317;47.936;12.742;2022-11-28T05:13:09;0.50;63.00
36280;DHT22;22317;47.936;12.742;2022-11-28T05:15:35;0.50;63.00
36280;DHT22;22317;47.936;12.742;2022-11-28T05:18:01;0.50;63.00
36280;DHT22;22317;47.936;12.742;2022-11-28T05:20:27;0.50;63.00
36280;DHT22;22317;47.936;12.742;2022-11-28T05:22:53;0.50;63.00
36280;DHT22;22317;47.936;12.742;2022-11-28T05:25:18;0.50;63.00
36280;DHT22;22317;47.936;12.742;2022-11-28T05:27:44;0.50;63.00
36280;DHT22;22317;47.936;12.742;2022-11-28T05:30:10;0.50;63.10
36280;DHT22;22317;47.936;12.742;2022-11-28T05:32:36;0.60;63.20
36280;DHT22;22317;47.936;12.742;2022-11-28T05:35:03;0.60;63.10
36280;DHT22;22317;47.936;12.742;2022-11-28T05:37:29;0.60;62.90
36280;DHT22;22317;47.936;12.742;2022-11-28T05:39:55;0.60;62.80
36280;DHT22;22317;47.936;12.742;2022-11-28T05:42:20;0.60;62.80
36280;DHT22;22317;47.936;12.742;2022-11-28T05:44:46;0.70;63.00
36280;DHT22;22317;47.936;12.742;2022-11-28T05:47:13;0.70;63.00
36280;DHT22;22317;47.936;12.742;2022-11-28T05:49:40;0.60;62.80
36280;DHT22;22317;47.936;12.742;2022-11-28T05:52:06;0.60;62.80
36280;DHT22;22317;47.936;12.742;2022-11-28T05:54:32;0.60;62.90
36280;DHT22;22317;47.936;12.742;2022-11-28T05:56:58;0.50;62.90
36280;DHT22;22317;47.936;12.742;2022-11-28T05:59:24;0.60;62.90
36280;DHT22;22317;47.936;12.742;2022-11-28T06:01:49;0.60;62.90
36280;DHT22;22317;47.936;12.742;2022-11-28T06:04:15;0.60;62.70
36280;DHT22;22317;47.936;12.742;2022-11-28T06:06:41;0.80;63.10
36280;DHT22;22317;47.936;12.742;2022-11-28T06:09:06;0.70;63.00
36280;DHT22;22317;47.936;12.742;2022-11-28T06:11:33;0.60;62.90
36280;DHT22;22317;47.936;12.742;2022-11-28T06:13:59;0.70;63.10
36280;DHT22;22317;47.936;12.742;2022-11-28T06:16:27;0.70;63.00
36280;DHT22;22317;47.936;12.742;2022-11-28T06:19:02;0.90;63.10
36280;DHT22;22317;47.936;12.742;2022-11-28T06:21:28;0.70;63.00
36280;DHT22;22317;47.936;12.742;2022-11-28T06:23:56;0.90;63.10
36280;DHT22;22317;47.936;12.742;2022-11-28T06:26:23;0.90;63.00
36280;DHT22;22317;47.936;12.742;2022-11-28T06:28:50;0.80;62.90
36280;DHT22;22317;47.936;12.742;2022-11-28T06:31:18;0.80;63.00
36280;DHT22;22317;47.936;12.742;2022-11-28T06:33:45;0.80;63.00
36280;DHT22;22317;47.936;12.742;2022-11-28T06:36:15;0.80;63.00
36280;DHT22;22317;47.936;12.742;2022-11-28T06:38:41;0.80;63.00
36280;DHT22;22317;47.936;12.742;2022-11-28T06:41:13;0.90;62.90
36280;DHT22;22317;47.936;12.742;2022-11-28T06:43:40;0.90;62.80
36280;DHT22;22317;47.936;12.742;2022-11-28T06:46:14;0.90;62.80
36280;DHT22;22317;47.936;12.742;2022-11-28T06:48:40;0.90;62.80
36280;DHT22;22317;47.936;12.742;2022-11-28T06:51:06;0.90;62.70
36280;DHT22;22317;47.936;12.742;2022-11-28T06:53:32;0.90;62.70
36280;DHT22;22317;47.936;12.742;2022-11-28T06:56:13;0.90;62.60
36280;DHT22;22317;47.936;12.742;2022-11-28T06:58:39;0.90;62.60
36280;DHT22;22317;47.936;12.742;2022-11-28T07:01:07;0.90;62.60
36280;DHT22;22317;47.936;12.742;2022-11-28T07:03:33;0.90;62.50
36280;DHT22;22317;47.936;12.742;2022-11-28T07:06:01;0.80;62.40
36280;DHT22;22317;47.936;12.742;2022-11-28T07:08:26;0.80;62.40
36280;DHT22;22317;47.936;12.742;2022-11-28T07:10:52;0.80;62.30
36280;DHT22;22317;47.936;12.742;2022-11-28T07:13:18;0.80;62.20
36280;DHT22;22317;47.936;12.742;2022-11-28T07:15:48;0.80;62.30
36280;DHT22;22317;47.936;12.742;2022-11-28T07:18:14;0.80;62.30
36280;DHT22;22317;47.936;12.742;2022-11-28T07:20:40;0.80;62.30
36280;DHT22;22317;47.936;12.742;2022-11-28T07:23:06;0.80;62.30
36280;DHT22;22317;47.936;12.742;2022-11-28T07:25:32;0.80;62.40
36280;DHT22;22317;47.936;12.742;2022-11-28T07:28:01;0.80;62.40
36280;DHT22;22317;47.936;12.742;2022-11-28T07:30:26;0.80;62.50
36280;DHT22;22317;47.936;12.742;2022-11-28T07:32:52;0.80;62.60
36280;DHT22;22317;47.936;12.742;2022-11-28T07:35:18;0.90;62.70
36280;DHT22;22317;47.936;12.742;2022-11-28T07:37:44;0.90;62.70
36280;DHT22;22317;47.936;12.742;2022-11-28T07:40:10;1.00;62.70
36280;DHT22;22317;47.936;12.742;2022-11-28T07:42:37;1.00;62.60
36280;DHT22;22317;47.936;12.742;2022-11-28T07:45:04;1.00;62.40
36280;DHT22;22317;47.936;12.742;2022-11-28T07:47:30;1.10;62.40
36280;DHT22;22317;47.936;12.742;2022-11-28T07:49:56;1.10;62.30
36280;DHT22;22317;47.936;12.742;2022-11-28T07:52:21;1.10;62.40
36280;DHT22;22317;47.936;12.742;2022-11-28T07:54:48;1.30;62.50
36280;DHT22;22317;47.936;12.742;2022-11-28T07:57:14;1.20;62.30
36280;DHT22;22317;47.936;12.742;2022-11-28T07:59:40;1.20;62.40
36280;DHT22;22317;47.936;12.742;2022-11-28T08:02:06;1.40;62.60
36280;DHT22;22317;47.936;12.742;2022-11-28T08:04:31;1.30;62.40
36280;DHT22;22317;47.936;12.742;2022-11-28T08:06:57;1.40;62.50
36280;DHT22;22317;47.936;12.742;2022-11-28T08:09:23;1.40;62.60
36280;DHT22;22317;47.936;12.742;2022-11-28T08:11:49;1.60;62.70
36280;DHT22;22317;47.936;12.742;2022-11-28T08:14:17;1.60;62.60
36280;DHT22;22317;47.936;12.742;2022-11-28T08:16:43;1.80;62.60
36280;DHT22;22317;47.936;12.742;2022-11-28T08:19:11;2.20;62.80
36280;DHT22;22317;47.936;12.742;2022-11-28T08:21:38;1.80;62.40
36280;DHT22;22317;47.936;12.742;2022-11-28T08:24:04;2.00;62.30
36280;DHT22;22317;47.936;12.742;2022-11-28T08:26:31;2.00;62.20
36280;DHT22;22317;47.936;12.742;2022-11-28T08:28:58;2.10;62.20
36280;DHT22;22317;47.936;12.742;2022-11-28T08:31:27;2.10;62.20
36280;DHT22;22317;47.936;12.742;2022-11-28T08:33:55;2.20;62.10
36280;DHT22;22317;47.936;12.742;2022-11-28T08:36:21;2.20;62.00
36280;DHT22;22317;47.936;12.742;2022-11-28T08:38:48;2.30;62.00
36280;DHT22;22317;47.936;12.742;2022-11-28T08:41:17;2.30;62.00
36280;DHT22;22317;47.936;12.742;2022-11-28T08:43:43;2.50;61.90
36280;DHT22;22317;47.936;12.742;2022-11-28T08:46:12;2.50;61.70
36280;DHT22;22317;47.936;12.742;2022-11-28T08:48:39;2.50;61.80
36280;DHT22;22317;47.936;12.742;2022-11-28T08:51:06;2.50;61.50
36280;DHT22;22317;47.936;12.742;2022-11-28T08:53:32;2.60;61.50
36280;DHT22;22317;47.936;12.742;2022-11-28T08:55:58;2.70;61.60
36280;DHT22;22317;47.936;12.742;2022-11-28T08:58:24;2.70;61.40
36280;DHT22;22317;47.936;12.742;2022-11-28T09:00:50;2.80;61.60
36280;DHT22;22317;47.936;12.742;2022-11-28T09:03:18;2.70;61.50
36280;DHT22;22317;47.936;12.742;2022-11-28T09:05:45;2.80;61.50
36280;DHT22;22317;47.936;12.742;2022-11-28T09:08:16;2.80;61.10
36280;DHT22;22317;47.936;12.742;2022-11-28T09:10:43;2.80;61.00
36280;DHT22;22317;47.936;12.742;2022-11-28T09:13:09;2.80;61.00
36280;DHT22;22317;47.936;12.742;2022-11-28T09:15:44;2.80;61.10
36280;DHT22;22317;47.936;12.742;2022-11-28T09:18:12;2.80;61.10
36280;DHT22;22317;47.936;12.742;2022-11-28T09:20:38;2.90;61.20
36280;DHT22;22317;47.936;12.742;2022-11-28T09:23:04;2.90;61.20
36280;DHT22;22317;47.936;12.742;2022-11-28T09:25:30;3.00;61.20
36280;DHT22;22317;47.936;12.742;2022-11-28T09:27:58;3.00;60.90
36280;DHT22;22317;47.936;12.742;2022-11-28T09:30:26;3.10;61.60
36280;DHT22;22317;47.936;12.742;2022-11-28T09:32:52;3.20;60.80
36280;DHT22;22317;47.936;12.742;2022-11-28T09:35:18;3.30;60.70
36280;DHT22;22317;47.936;12.742;2022-11-28T09:37:43;3.30;60.40
36280;DHT22;22317;47.936;12.742;2022-11-28T09:40:32;3.30;60.20
36280;DHT22;22317;47.936;12.742;2022-11-28T09:43:10;3.30;60.00
36280;DHT22;22317;47.936;12.742;2022-11-28T09:45:37;3.40;60.10
36280;DHT22;22317;47.936;12.742;2022-11-28T09:48:28;3.40;60.10
36280;DHT22;22317;47.936;12.742;2022-11-28T09:51:06;3.50;59.90
36280;DHT22;22317;47.936;12.742;2022-11-28T09:53:46;3.50;59.80
36280;DHT22;22317;47.936;12.742;2022-11-28T09:56:16;3.60;60.00
36280;DHT22;22317;47.936;12.742;2022-11-28T09:58:58;3.70;59.90
36280;DHT22;22317;47.936;12.742;2022-11-28T10:12:08;4.20;59.50
36280;DHT22;22317;47.936;12.742;2022-11-28T10:22:49;4.50;58.60
36280;DHT22;22317;47.936;12.742;2022-11-28T10:25:36;4.50;58.40
36280;DHT22;22317;47.936;12.742;2022-11-28T10:28:13;4.60;58.20
36280;DHT22;22317;47.936;12.742;2022-11-28T10:30:43;4.60;57.90
36280;DHT22;22317;47.936;12.742;2022-11-28T10:33:15;4.60;57.90
36280;DHT22;22317;47.936;12.742;2022-11-28T10:35:57;4.60;57.60
36280;DHT22;22317;47.936;12.742;2022-11-28T10:38:28;4.60;57.40
36280;DHT22;22317;47.936;12.742;2022-11-28T10:41:16;4.60;57.50
36280;DHT22;22317;47.936;12.742;2022-11-28T10:44:03;4.60;57.40
36280;DHT22;22317;47.936;12.742;2022-11-28T10:47:06;4.60;57.40
36280;DHT22;22317;47.936;12.742;2022-11-28T10:50:07;4.60;57.30
36280;DHT22;22317;47.936;12.742;2022-11-28T10:52:51;4.60;57.00
36280;DHT22;22317;47.936;12.742;2022-11-28T11:00:34;4.50;57.10
36280;DHT22;22317;47.936;12.742;2022-11-28T11:03:02;4.60;57.20
36280;DHT22;22317;47.936;12.742;2022-11-28T11:05:31;4.50;56.90
36280;DHT22;22317;47.936;12.742;2022-11-28T11:13:26;4.40;56.60
36280;DHT22;22317;47.936;12.742;2022-11-28T11:16:05;4.40;56.60
36280;DHT22;22317;47.936;12.742;2022-11-28T11:18:37;4.40;56.60
36280;DHT22;22317;47.936;12.742;2022-11-28T11:21:23;4.40;56.70
36280;DHT22;22317;47.936;12.742;2022-11-28T11:24:15;4.50;56.70
36280;DHT22;22317;47.936;12.742;2022-11-28T11:26:47;4.50;56.60
36280;DHT22;22317;47.936;12.742;2022-11-28T11:31:51;4.50;56.50
36280;DHT22;22317;47.936;12.742;2022-11-28T11:34:20;4.60;56.50
36280;DHT22;22317;47.936;12.742;2022-11-28T11:36:47;4.60;56.40
36280;DHT22;22317;47.936;12.742;2022-11-28T11:41:43;4.60;56.20
36280;DHT22;22317;47.936;12.742;2022-11-28T11:46:53;4.70;56.10
36280;DHT22;22317;47.936;12.742;2022-11-28T11:49:28;4.80;56.00
36280;DHT22;22317;47.936;12.742;2022-11-28T11:51:59;4.70;56.00
36280;DHT22;22317;47.936;12.742;2022-11-28T11:54:26;4.70;56.00
36280;DHT22;22317;47.936;12.742;2022-11-28T11:56:53;4.80;56.00
36280;DHT22;22317;47.936;12.742;2022-11-28T11:59:38;4.80;56.00
36280;DHT22;22317;47.936;12.742;2022-11-28T12:02:14;4.80;55.90
36280;DHT22;22317;47.936;12.742;2022-11-28T12:04:48;4.90;56.00
36280;DHT22;22317;47.936;12.742;2022-11-28T12:07:32;5.00;56.00
36280;DHT22;22317;47.936;12.742;2022-11-28T12:10:04;5.00;56.00
36280;DHT22;22317;47.936;12.742;2022-11-28T12:12:35;5.00;55.70
36280;DHT22;22317;47.936;12.742;2022-11-28T12:15:01;5.10;55.70
36280;DHT22;22317;47.936;12.742;2022-11-28T12:17:39;5.10;55.50
36280;DHT22;22317;47.936;12.742;2022-11-28T12:20:29;5.10;55.60
36280;DHT22;22317;47.936;12.742;2022-11-28T12:25:47;5.10;55.50
36280;DHT22;22317;47.936;12.742;2022-11-28T12:34:31;5.10;55.30
36280;DHT22;22317;47.936;12.742;2022-11-28T12:42:47;5.10;55.30
36280;DHT22;22317;47.936;12.742;2022-11-28T12:45:40;5.10;55.40
36280;DHT22;22317;47.936;12.742;2022-11-28T12:54:18;5.00;55.50
36280;DHT22;22317;47.936;12.742;2022-11-28T12:57:02;5.10;55.60
36280;DHT22;22317;47.936;12.742;2022-11-28T12:59:52;5.10;55.50
36280;DHT22;22317;47.936;12.742;2022-11-28T13:22:06;4.80;55.30
36280;DHT22;22317;47.936;12.742;2022-11-28T13:24:40;4.80;55.40
36280;DHT22;22317;47.936;12.742;2022-11-28T13:30:25;4.70;55.50
36280;DHT22;22317;47.936;12.742;2022-11-28T13:35:46;4.60;55.50
36280;DHT22;22317;47.936;12.742;2022-11-28T13:41:19;4.60;55.70
36280;DHT22;22317;47.936;12.742;2022-11-28T13:46:12;4.60;55.80
36280;DHT22;22317;47.936;12.742;2022-11-28T13:53:40;4.50;55.50
36280;DHT22;22317;47.936;12.742;2022-11-28T13:58:46;4.50;55.70
36280;DHT22;22317;47.936;12.742;2022-11-28T14:01:16;4.50;55.70
36280;DHT22;22317;47.936;12.742;2022-11-28T14:06:46;4.50;55.80
36280;DHT22;22317;47.936;12.742;2022-11-28T14:25:00;4.30;56.10
36280;DHT22;22317;47.936;12.742;2022-11-28T14:27:35;4.30;56.10
36280;DHT22;22317;47.936;12.742;2022-11-28T14:30:05;4.30;56.20
36280;DHT22;22317;47.936;12.742;2022-11-28T14:32:40;4.30;56.20
36280;DHT22;22317;47.936;12.742;2022-11-28T14:38:11;4.30;56.20
36280;DHT22;22317;47.936;12.742;2022-11-28T14:45:51;4.40;56.30
36280;DHT22;22317;47.936;12.742;2022-11-28T14:50:51;4.20;56.40
36280;DHT22;22317;47.936;12.742;2022-11-28T14:58:38;4.10;56.70
36280;DHT22;22317;47.936;12.742;2022-11-28T15:01:09;4.10;56.80
36280;DHT22;22317;47.936;12.742;2022-11-28T15:06:18;4.10;57.20
36280;DHT22;22317;47.936;12.742;2022-11-28T15:14:37;4.10;57.20
36280;DHT22;22317;47.936;12.742;2022-11-28T15:17:05;4.10;57.20
36280;DHT22;22317;47.936;12.742;2022-11-28T15:19:44;4.10;57.20
36280;DHT22;22317;47.936;12.742;2022-11-28T15:22:30;4.10;57.30
36280;DHT22;22317;47.936;12.742;2022-11-28T15:24:56;4.00;57.30
36280;DHT22;22317;47.936;12.742;2022-11-28T15:27:24;4.00;57.20
36280;DHT22;22317;47.936;12.742;2022-11-28T15:29:56;4.00;57.40
36280;DHT22;22317;47.936;12.742;2022-11-28T15:32:23;4.00;57.40
36280;DHT22;22317;47.936;12.742;2022-11-28T15:34:57;4.00;57.50
36280;DHT22;22317;47.936;12.742;2022-11-28T15:37:27;4.00;57.50
36280;DHT22;22317;47.936;12.742;2022-11-28T15:39:53;4.10;57.60
36280;DHT22;22317;47.936;12.742;2022-11-28T15:42:23;4.00;57.50
36280;DHT22;22317;47.936;12.742;2022-11-28T15:45:23;4.00;57.60
36280;DHT22;22317;47.936;12.742;2022-11-28T15:47:51;3.90;57.60
36280;DHT22;22317;47.936;12.742;2022-11-28T15:50:28;3.90;57.60
36280;DHT22;22317;47.936;12.742;2022-11-28T15:53:15;3.90;57.70
36280;DHT22;22317;47.936;12.742;2022-11-28T15:55:42;3.90;57.70
36280;DHT22;22317;47.936;12.742;2022-11-28T15:58:28;3.90;57.70
36280;DHT22;22317;47.936;12.742;2022-11-28T16:01:17;3.90;57.80
36280;DHT22;22317;47.936;12.742;2022-11-28T16:03:55;3.80;57.90
36280;DHT22;22317;47.936;12.742;2022-11-28T16:06:25;3.90;57.90
36280;DHT22;22317;47.936;12.742;2022-11-28T16:09:03;3.80;58.00
36280;DHT22;22317;47.936;12.742;2022-11-28T16:11:30;3.80;58.00
36280;DHT22;22317;47.936;12.742;2022-11-28T16:13:59;3.80;58.10
36280;DHT22;22317;47.936;12.742;2022-11-28T16:16:30;3.70;58.20
36280;DHT22;22317;47.936;12.742;2022-11-28T16:19:03;3.90;58.30
36280;DHT22;22317;47.936;12.742;2022-11-28T16:21:37;3.80;58.30
36280;DHT22;22317;47.936;12.742;2022-11-28T16:26:59;3.70;58.50
36280;DHT22;22317;47.936;12.742;2022-11-28T16:29:29;3.80;58.60
36280;DHT22;22317;47.936;12.742;2022-11-28T16:32:17;3.80;58.60
36280;DHT22;22317;47.936;12.742;2022-11-28T16:34:46;3.70;58.70
36280;DHT22;22317;47.936;12.742;2022-11-28T16:37:12;3.70;58.70
36280;DHT22;22317;47.936;12.742;2022-11-28T16:39:38;3.80;58.70
36280;DHT22;22317;47.936;12.742;2022-11-28T16:42:16;3.80;58.70
36280;DHT22;22317;47.936;12.742;2022-11-28T16:44:43;3.80;58.70
36280;DHT22;22317;47.936;12.742;2022-11-28T16:47:26;3.80;58.70
36280;DHT22;22317;47.936;12.742;2022-11-28T16:52:54;3.70;58.80
36280;DHT22;22317;47.936;12.742;2022-11-28T16:57:59;3.80;59.00
36280;DHT22;22317;47.936;12.742;2022-11-28T17:00:28;3.70;59.00
36280;DHT22;22317;47.936;12.742;2022-11-28T17:02:54;3.70;59.00
36280;DHT22;22317;47.936;12.742;2022-11-28T17:05:19;3.70;59.10
36280;DHT22;22317;47.936;12.742;2022-11-28T17:07:45;3.70;59.70
36280;DHT22;22317;47.936;12.742;2022-11-28T17:10:11;3.70;59.20
36280;DHT22;22317;47.936;12.742;2022-11-28T17:12:37;3.70;59.20
36280;DHT22;22317;47.936;12.742;2022-11-28T17:15:05;3.70;59.30
36280;DHT22;22317;47.936;12.742;2022-11-28T17:17:33;3.70;59.40
36280;DHT22;22317;47.936;12.742;2022-11-28T17:19:59;3.70;59.40
36280;DHT22;22317;47.936;12.742;2022-11-28T17:22:31;3.70;59.40
36280;DHT22;22317;47.936;12.742;2022-11-28T17:24:59;3.70;59.40
36280;DHT22;22317;47.936;12.742;2022-11-28T17:27:26;3.70;59.40
36280;DHT22;22317;47.936;12.742;2022-11-28T17:29:52;3.70;59.40
36280;DHT22;22317;47.936;12.742;2022-11-28T17:32:17;3.70;59.50
36280;DHT22;22317;47.936;12.742;2022-11-28T17:34:43;3.70;59.50
36280;DHT22;22317;47.936;12.742;2022-11-28T17:37:10;3.70;59.50
36280;DHT22;22317;47.936;12.742;2022-11-28T17:39:36;3.60;59.50
36280;DHT22;22317;47.936;12.742;2022-11-28T17:42:03;3.60;59.60
36280;DHT22;22317;47.936;12.742;2022-11-28T17:44:30;3.60;59.60
36280;DHT22;22317;47.936;12.742;2022-11-28T17:46:59;3.70;59.70
36280;DHT22;22317;47.936;12.742;2022-11-28T17:49:26;3.60;59.60
36280;DHT22;22317;47.936;12.742;2022-11-28T17:51:53;3.50;59.60
36280;DHT22;22317;47.936;12.742;2022-11-28T17:54:21;3.50;59.70
36280;DHT22;22317;47.936;12.742;2022-11-28T17:56:48;3.50;59.80
36280;DHT22;22317;47.936;12.742;2022-11-28T17:59:17;3.60;60.00
36280;DHT22;22317;47.936;12.742;2022-11-28T18:01:43;3.60;60.00
36280;DHT22;22317;47.936;12.742;2022-11-28T18:04:09;3.60;60.00
36280;DHT22;22317;47.936;12.742;2022-11-28T18:06:35;3.60;60.10
36280;DHT22;22317;47.936;12.742;2022-11-28T18:09:03;3.60;60.10
36280;DHT22;22317;47.936;12.742;2022-11-28T18:11:30;3.60;60.10
36280;DHT22;22317;47.936;12.742;2022-11-28T18:13:57;3.60;60.20
36280;DHT22;22317;47.936;12.742;2022-11-28T18:16:23;3.60;60.20
36280;DHT22;22317;47.936;12.742;2022-11-28T18:18:54;3.60;60.20
36280;DHT22;22317;47.936;12.742;2022-11-28T18:21:20;3.60;60.20
36280;DHT22;22317;47.936;12.742;2022-11-28T18:23:48;3.50;60.20
36280;DHT22;22317;47.936;12.742;2022-11-28T18:26:19;3.60;60.30
36280;DHT22;22317;47.936;12.742;2022-11-28T18:28:45;3.60;60.40
36280;DHT22;22317;47.936;12.742;2022-11-28T18:31:23;3.60;60.40
36280;DHT22;22317;47.936;12.742;2022-11-28T18:33:49;3.60;60.40
36280;DHT22;22317;47.936;12.742;2022-11-28T18:36:21;3.60;60.40
36280;DHT22;22317;47.936;12.742;2022-11-28T18:38:48;3.60;60.40
36280;DHT22;22317;47.936;12.742;2022-11-28T18:41:16;3.60;60.40
36280;DHT22;22317;47.936;12.742;2022-11-28T18:43:42;3.50;60.40
36280;DHT22;22317;47.936;12.742;2022-11-28T18:46:11;3.50;60.30
36280;DHT22;22317;47.936;12.742;2022-11-28T18:48:38;3.60;60.40
36280;DHT22;22317;47.936;12.742;2022-11-28T18:51:16;3.50;60.40
36280;DHT22;22317;47.936;12.742;2022-11-28T18:53:43;3.50;60.50
36280;DHT22;22317;47.936;12.742;2022-11-28T18:56:10;3.50;60.60
36280;DHT22;22317;47.936;12.742;2022-11-28T18:58:39;3.50;60.50
36280;DHT22;22317;47.936;12.742;2022-11-28T19:03:47;3.50;60.50
36280;DHT22;22317;47.936;12.742;2022-11-28T19:06:13;3.50;60.60